Time;durP1;ratioP1;P1;durP2;ratioP2;P2;SDS_P1;SDS_P2;PMS_P1;PMS_P2;Temp;Humidity;BMP_temperature;BMP_pressure;BME280_temperature;BME280_humidity;BME280_pressure;Samples;Min_cycle;Max_cycle;Signal;HPM_P1;HPM_P2
2021/09/14 00:01:43;;;;;;;6.10;5.57;;;16.50;74.60;;;;;;4990358;28;20184;-73
2021/09/14 00:04:09;;;;;;;5.72;5.20;;;16.50;74.50;;;;;;4993560;28;20182;-74
2021/09/14 00:06:39;;;;;;;7.00;5.63;;;16.50;74.40;;;;;;4992491;28;20177;-74
2021/09/14 00:09:05;;;;;;;6.07;5.10;;;16.50;74.70;;;;;;4990735;28;20962;-74
2021/09/14 00:11:33;;;;;;;5.78;5.35;;;16.40;74.80;;;;;;4996534;28;20580;-73
2021/09/14 00:13:58;;;;;;;9.55;5.75;;;16.40;75.10;;;;;;4997224;28;20213;-73
2021/09/14 00:16:24;;;;;;;4.80;4.50;;;16.40;75.00;;;;;;4990306;28;20194;-74
2021/09/14 00:18:51;;;;;;;7.82;5.63;;;16.30;75.30;;;;;;4990499;28;20185;-73
2021/09/14 00:21:17;;;;;;;5.47;4.97;;;16.30;75.80;;;;;;4999315;28;20647;-73
2021/09/14 00:23:43;;;;;;;6.10;5.38;;;16.30;75.40;;;;;;4992257;28;20189;-73
2021/09/14 00:26:09;;;;;;;5.03;4.72;;;16.30;75.30;;;;;;4989176;28;20265;-72
2021/09/14 00:28:34;;;;;;;9.52;5.72;;;16.30;74.90;;;;;;4997259;28;20331;-74
2021/09/14 00:31:00;;;;;;;6.63;5.85;;;16.20;75.70;;;;;;5019601;28;20184;-73
2021/09/14 00:33:26;;;;;;;6.20;5.10;;;16.20;75.70;;;;;;4990162;28;20582;-74
2021/09/14 00:35:52;;;;;;;6.85;5.10;;;16.20;75.70;;;;;;4987563;28;20192;-72
2021/09/14 00:38:17;;;;;;;5.80;5.03;;;16.10;76.00;;;;;;4993855;28;20178;-72
2021/09/14 00:40:43;;;;;;;6.20;4.60;;;16.10;76.40;;;;;;4995878;28;20324;-72
2021/09/14 00:43:09;;;;;;;6.22;5.18;;;16.10;76.40;;;;;;4988353;28;20186;-73
2021/09/14 00:45:34;;;;;;;5.38;4.97;;;16.00;76.50;;;;;;4988952;28;20189;-74
2021/09/14 00:48:01;;;;;;;4.93;4.50;;;16.00;76.80;;;;;;4990142;28;20239;-73
2021/09/14 00:50:28;;;;;;;7.22;4.55;;;15.90;76.80;;;;;;4997906;28;20174;-73
2021/09/14 00:52:54;;;;;;;5.90;4.78;;;15.90;77.10;;;;;;4990490;28;20268;-73
2021/09/14 00:55:20;;;;;;;6.18;5.18;;;15.90;77.10;;;;;;4988955;28;20273;-73
2021/09/14 00:57:46;;;;;;;6.57;4.47;;;15.90;77.00;;;;;;4995405;28;20654;-73
2021/09/14 01:00:12;;;;;;;5.13;4.60;;;15.80;77.10;;;;;;4997207;28;20178;-73
2021/09/14 01:02:38;;;;;;;10.32;4.35;;;15.80;77.40;;;;;;4996082;28;20188;-73
2021/09/14 01:05:04;;;;;;;5.30;4.80;;;15.80;77.70;;;;;;4989425;28;20307;-73
2021/09/14 01:07:31;;;;;;;5.50;4.97;;;15.80;77.50;;;;;;4999461;28;20193;-73
2021/09/14 01:09:58;;;;;;;7.47;4.55;;;15.80;77.70;;;;;;4993455;28;20264;-72
2021/09/14 01:12:23;;;;;;;6.80;4.25;;;15.70;77.50;;;;;;4991917;28;20190;-74
2021/09/14 01:14:53;;;;;;;6.05;4.47;;;15.70;77.80;;;;;;4993761;28;20267;-74
2021/09/14 01:17:20;;;;;;;4.85;4.45;;;15.60;77.70;;;;;;4994111;28;20192;-73
2021/09/14 01:19:46;;;;;;;5.80;4.72;;;15.60;78.10;;;;;;4986522;28;20267;-73
2021/09/14 01:22:14;;;;;;;8.82;4.90;;;15.50;78.30;;;;;;5025398;28;20189;-73
2021/09/14 01:24:39;;;;;;;5.03;4.55;;;15.50;78.30;;;;;;4991117;28;20213;-71
2021/09/14 01:27:05;;;;;;;7.90;5.60;;;15.50;78.70;;;;;;4993132;28;20683;-72
2021/09/14 01:32:15;;;;;;;6.72;4.38;;;15.40;78.50;;;;;;4988915;28;20717;-71
2021/09/14 01:34:41;;;;;;;6.75;4.55;;;15.40;79.00;;;;;;5017545;28;20225;-73
2021/09/14 01:37:07;;;;;;;4.72;4.15;;;15.40;78.80;;;;;;4990114;28;20182;-73
2021/09/14 01:39:33;;;;;;;4.30;4.00;;;15.30;78.90;;;;;;4983803;28;20182;-73
2021/09/14 01:41:58;;;;;;;10.15;4.75;;;15.30;78.80;;;;;;4993261;28;20183;-73
2021/09/14 01:44:24;;;;;;;6.13;4.72;;;15.30;79.30;;;;;;4991825;28;20284;-73
2021/09/14 01:46:52;;;;;;;4.47;4.25;;;15.20;79.40;;;;;;4996386;28;20292;-73
2021/09/14 01:49:17;;;;;;;4.70;4.30;;;15.20;79.30;;;;;;4991878;28;20196;-73
2021/09/14 01:51:43;;;;;;;4.85;4.50;;;15.20;79.30;;;;;;4990937;28;20177;-73
2021/09/14 01:54:09;;;;;;;4.85;4.13;;;15.20;79.10;;;;;;4993601;28;20275;-73
2021/09/14 01:56:36;;;;;;;5.00;4.50;;;15.10;79.40;;;;;;4996090;28;20256;-73
2021/09/14 01:59:02;;;;;;;5.75;4.38;;;15.10;79.60;;;;;;4990396;28;20230;-74
2021/09/14 02:01:31;;;;;;;4.90;4.00;;;15.10;79.40;;;;;;4991299;28;20184;-73
2021/09/14 02:04:04;;;;;;;5.10;4.65;;;15.10;79.30;;;;;;4986918;28;20193;-73
2021/09/14 02:33:52;;;;;;;5.75;4.53;;;14.80;80.70;;;;;;4991676;28;20664;-72
2021/09/14 02:39:22;;;;;;;11.02;5.13;;;14.80;80.90;;;;;;4993518;28;20199;-72
2021/09/14 03:00:38;;;;;;;6.00;4.90;;;14.60;81.50;;;;;;4997824;28;20696;-72
2021/09/14 03:03:05;;;;;;;5.60;4.80;;;14.60;81.50;;;;;;4994954;28;20267;-72
2021/09/14 03:05:31;;;;;;;6.70;4.60;;;14.60;81.70;;;;;;4989938;28;20185;-72
2021/09/14 03:07:57;;;;;;;4.47;4.18;;;14.60;81.40;;;;;;4998668;28;20192;-72
2021/09/14 03:10:23;;;;;;;5.13;4.72;;;14.50;81.60;;;;;;4995677;28;20580;-72
2021/09/14 03:12:48;;;;;;;4.85;4.40;;;14.50;81.90;;;;;;4993095;28;20200;-73
2021/09/14 03:15:14;;;;;;;4.25;3.95;;;14.50;81.90;;;;;;4997457;28;20769;-72
2021/09/14 03:17:40;;;;;;;5.35;4.38;;;14.50;81.80;;;;;;4997934;28;20201;-72
2021/09/14 03:20:06;;;;;;;4.70;4.30;;;14.50;82.40;;;;;;4991818;28;20190;-72
2021/09/14 03:22:31;;;;;;;6.63;4.53;;;14.50;82.50;;;;;;4995529;28;20198;-73
2021/09/14 03:24:57;;;;;;;4.30;4.00;;;14.40;82.30;;;;;;4990451;28;20199;-72
2021/09/14 03:27:23;;;;;;;4.82;4.40;;;14.30;82.20;;;;;;4996132;28;20672;-73
2021/09/14 03:29:48;;;;;;;4.15;3.75;;;14.30;82.30;;;;;;4995304;28;20328;-73
2021/09/14 03:32:14;;;;;;;4.55;4.10;;;14.20;82.40;;;;;;4995026;28;20209;-73
2021/09/14 03:34:40;;;;;;;4.97;4.57;;;14.20;82.60;;;;;;4993383;28;20294;-73
2021/09/14 03:37:05;;;;;;;4.40;4.00;;;14.20;82.30;;;;;;4995902;28;20208;-73
2021/09/14 03:39:31;;;;;;;5.38;4.38;;;14.20;82.50;;;;;;4995339;28;20248;-72
2021/09/14 03:41:57;;;;;;;5.28;4.72;;;14.10;82.70;;;;;;4995699;28;20182;-73
2021/09/14 03:44:23;;;;;;;4.13;3.72;;;14.10;82.60;;;;;;4999470;28;20243;-72
2021/09/14 03:46:48;;;;;;;4.43;4.13;;;14.10;82.80;;;;;;4994426;28;20309;-73
2021/09/14 03:49:14;;;;;;;4.90;4.60;;;14.00;82.80;;;;;;4993145;28;20185;-73
2021/09/14 03:51:40;;;;;;;4.53;4.22;;;14.00;82.80;;;;;;4994853;28;20247;-73
2021/09/14 03:54:07;;;;;;;7.65;3.90;;;14.00;82.80;;;;;;4987895;28;20221;-72
2021/09/14 03:56:32;;;;;;;5.07;4.60;;;14.00;82.80;;;;;;5001844;28;20195;-72
2021/09/14 03:58:58;;;;;;;6.07;4.50;;;14.00;82.80;;;;;;4996342;28;20632;-72
2021/09/14 04:01:24;;;;;;;4.55;4.10;;;14.00;82.70;;;;;;4988500;28;20193;-72
2021/09/14 04:03:57;;;;;;;5.32;4.72;;;14.00;83.40;;;;;;5021476;28;20197;-72
2021/09/14 04:09:04;;;;;;;5.68;5.10;;;14.00;83.70;;;;;;4997213;28;20182;-72
2021/09/14 04:11:29;;;;;;;5.30;4.22;;;14.00;83.80;;;;;;4993079;28;20264;-72
2021/09/14 04:13:55;;;;;;;6.03;5.43;;;13.90;83.70;;;;;;4993946;28;20268;-72
2021/09/14 04:16:21;;;;;;;7.85;5.22;;;13.90;83.50;;;;;;4993137;28;20217;-72
2021/09/14 04:18:47;;;;;;;9.98;6.30;;;13.90;83.30;;;;;;4985910;28;20182;-72
2021/09/14 04:21:13;;;;;;;10.07;7.15;;;13.80;83.30;;;;;;4995742;28;20738;-73
2021/09/14 04:23:39;;;;;;;6.45;5.82;;;13.80;83.40;;;;;;4990431;28;20189;-72
2021/09/14 04:26:05;;;;;;;10.57;6.03;;;13.80;83.20;;;;;;4990573;28;20201;-73
2021/09/14 04:28:31;;;;;;;9.88;6.85;;;13.80;83.20;;;;;;4988082;28;20200;-73
2021/09/14 04:30:58;;;;;;;10.38;7.53;;;13.80;83.10;;;;;;4991664;28;20182;-73
2021/09/14 04:33:23;;;;;;;9.50;7.03;;;13.70;83.00;;;;;;5018186;28;20636;-73
2021/09/14 04:35:49;;;;;;;10.10;6.72;;;13.70;83.20;;;;;;4991700;28;20190;-73
2021/09/14 04:38:15;;;;;;;8.15;5.85;;;13.70;83.20;;;;;;4993174;28;20265;-73
2021/09/14 04:40:40;;;;;;;6.97;6.20;;;13.80;83.20;;;;;;4991493;28;20571;-73
2021/09/14 04:43:06;;;;;;;7.22;6.35;;;13.80;83.10;;;;;;5023711;28;20220;-74
2021/09/14 04:45:32;;;;;;;8.25;5.45;;;13.80;83.00;;;;;;4992868;28;20177;-73
2021/09/14 04:47:58;;;;;;;5.90;5.18;;;13.80;82.90;;;;;;4993092;28;20177;-73
2021/09/14 04:50:24;;;;;;;6.72;6.07;;;13.90;82.70;;;;;;4995321;28;20247;-73
2021/09/14 04:52:49;;;;;;;6.93;6.25;;;13.90;82.60;;;;;;4991485;28;20678;-74
2021/09/14 04:55:15;;;;;;;7.22;5.70;;;13.90;82.70;;;;;;5023635;28;20221;-74
2021/09/14 04:57:41;;;;;;;8.20;5.53;;;13.90;83.10;;;;;;4993537;28;20232;-74
2021/09/14 05:00:07;;;;;;;9.95;6.88;;;14.00;83.30;;;;;;4993980;28;20177;-73
2021/09/14 05:02:34;;;;;;;6.07;5.45;;;14.00;83.40;;;;;;4994224;28;20197;-73
2021/09/14 05:05:00;;;;;;;6.82;5.45;;;14.00;83.30;;;;;;4994036;28;20268;-73
2021/09/14 05:07:25;;;;;;;6.75;6.07;;;14.00;83.40;;;;;;4992608;28;20284;-74
2021/09/14 05:09:51;;;;;;;8.02;5.80;;;14.10;83.30;;;;;;4992065;28;20181;-74
2021/09/14 05:12:17;;;;;;;5.32;4.90;;;14.10;83.20;;;;;;4988764;28;20197;-75
2021/09/14 05:14:42;;;;;;;5.22;4.75;;;14.20;83.20;;;;;;4994844;28;20851;-75
2021/09/14 05:17:08;;;;;;;7.97;5.82;;;14.20;83.10;;;;;;4992022;28;20546;-75
2021/09/14 05:19:36;;;;;;;8.05;6.03;;;14.20;83.10;;;;;;4995490;28;20181;-76
2021/09/14 05:22:03;;;;;;;5.97;5.40;;;14.30;83.10;;;;;;4985691;28;20954;-77
2021/09/14 05:24:30;;;;;;;7.13;5.43;;;14.30;82.90;;;;;;5020306;28;20196;-77
2021/09/14 05:26:57;;;;;;;6.05;5.45;;;14.40;82.80;;;;;;4991355;28;20188;-77
2021/09/14 05:29:23;;;;;;;10.45;5.85;;;14.50;82.70;;;;;;4989926;28;20682;-77
2021/09/14 05:31:51;;;;;;;7.70;5.53;;;14.50;82.60;;;;;;4992579;28;20181;-77
2021/09/14 05:34:17;;;;;;;10.07;5.55;;;14.60;82.30;;;;;;4991085;28;20217;-77
2021/09/14 05:36:43;;;;;;;7.32;5.70;;;14.60;82.40;;;;;;4991257;28;20208;-76
2021/09/14 05:39:09;;;;;;;5.80;5.30;;;14.70;82.30;;;;;;4992543;28;20188;-77
2021/09/14 05:41:39;;;;;;;9.55;6.38;;;14.80;82.30;;;;;;5020801;28;20180;-76
2021/09/14 05:44:05;;;;;;;8.77;5.78;;;14.80;82.20;;;;;;4981927;28;20197;-76
2021/09/14 05:46:31;;;;;;;7.28;5.90;;;14.90;82.10;;;;;;4989979;28;20189;-76
2021/09/14 05:48:57;;;;;;;7.90;6.75;;;14.90;82.00;;;;;;4992939;28;20943;-77
2021/09/14 05:51:23;;;;;;;8.57;6.32;;;15.00;81.90;;;;;;4993005;28;20188;-76
2021/09/14 05:53:48;;;;;;;6.60;6.10;;;15.10;81.80;;;;;;4994290;28;20714;-75
2021/09/14 05:56:14;;;;;;;17.20;6.80;;;15.10;81.80;;;;;;4991728;28;20280;-76
2021/09/14 05:58:40;;;;;;;7.03;6.28;;;15.10;82.30;;;;;;4993577;28;20188;-76
2021/09/14 06:01:07;;;;;;;7.68;5.80;;;15.20;81.70;;;;;;4996209;28;20933;-77
2021/09/14 06:03:33;;;;;;;8.35;6.40;;;15.30;81.50;;;;;;4986402;28;20189;-75
2021/09/14 06:05:59;;;;;;;7.03;6.28;;;15.30;81.30;;;;;;4992003;28;20958;-75
2021/09/14 06:08:26;;;;;;;13.23;6.30;;;15.40;81.30;;;;;;4995642;28;20188;-76
2021/09/14 06:10:51;;;;;;;8.55;6.32;;;15.40;81.30;;;;;;4994917;28;20339;-76
2021/09/14 06:13:17;;;;;;;7.78;7.07;;;15.50;80.90;;;;;;4997083;28;20287;-76
2021/09/14 06:15:43;;;;;;;10.32;6.43;;;15.50;80.60;;;;;;4992965;28;20185;-76
2021/09/14 06:18:09;;;;;;;12.27;6.70;;;15.60;80.60;;;;;;4994797;28;20192;-77
2021/09/14 06:20:35;;;;;;;6.88;6.18;;;15.60;80.50;;;;;;4993251;28;20178;-76
2021/09/14 06:23:01;;;;;;;8.38;6.93;;;15.70;80.80;;;;;;4993630;28;20240;-75
2021/09/14 06:25:27;;;;;;;7.75;6.32;;;15.70;80.10;;;;;;4993631;28;20574;-75
2021/09/14 06:27:52;;;;;;;11.02;6.95;;;15.80;80.10;;;;;;4998549;28;20190;-77
2021/09/14 06:30:18;;;;;;;13.10;6.75;;;15.90;80.00;;;;;;4995836;28;20205;-75
2021/09/14 06:32:44;;;;;;;10.68;8.45;;;15.90;79.80;;;;;;4996504;28;20533;-75
2021/09/14 06:35:10;;;;;;;7.07;6.47;;;16.00;79.40;;;;;;4994245;28;20217;-77
2021/09/14 06:37:35;;;;;;;13.27;7.45;;;16.10;79.30;;;;;;4994310;28;20755;-77
2021/09/14 06:40:03;;;;;;;9.85;7.38;;;16.20;79.20;;;;;;4993473;28;20792;-77
2021/09/14 06:42:29;;;;;;;10.73;7.05;;;16.20;79.20;;;;;;4998715;28;20185;-77
2021/09/14 06:44:58;;;;;;;13.07;7.10;;;16.30;78.90;;;;;;4993604;28;20181;-75
2021/09/14 06:47:24;;;;;;;9.30;7.25;;;16.40;78.90;;;;;;4992377;28;20197;-75
2021/09/14 06:49:50;;;;;;;8.63;7.10;;;16.40;78.90;;;;;;4995015;28;20256;-77
2021/09/14 06:52:16;;;;;;;12.32;7.32;;;16.50;78.70;;;;;;4996264;28;20261;-75
2021/09/14 06:54:42;;;;;;;10.82;6.70;;;16.60;78.60;;;;;;4998521;28;20216;-76
2021/09/14 06:57:07;;;;;;;11.20;7.97;;;16.60;78.20;;;;;;4995251;28;20193;-75
2021/09/14 06:59:33;;;;;;;8.68;6.60;;;16.70;77.90;;;;;;4995635;28;20674;-75
2021/09/14 07:01:59;;;;;;;9.18;6.97;;;16.80;77.60;;;;;;4990361;28;20185;-75
2021/09/14 07:04:24;;;;;;;9.27;7.13;;;16.90;77.40;;;;;;4995312;28;20697;-77
2021/09/14 07:06:50;;;;;;;9.77;7.35;;;16.90;77.20;;;;;;4991769;28;20173;-76
2021/09/14 07:09:17;;;;;;;11.95;7.45;;;17.00;77.00;;;;;;4996438;28;20184;-74
2021/09/14 07:11:43;;;;;;;8.60;7.07;;;17.10;76.50;;;;;;4994365;28;20194;-75
2021/09/14 07:14:09;;;;;;;14.93;6.85;;;17.20;76.40;;;;;;4993645;28;20224;-78
2021/09/14 07:16:35;;;;;;;8.13;7.05;;;17.20;76.30;;;;;;4991295;28;20186;-76
2021/09/14 07:19:01;;;;;;;10.43;7.50;;;17.30;75.90;;;;;;4994843;28;20574;-77
2021/09/14 07:21:26;;;;;;;9.60;6.78;;;17.40;75.90;;;;;;4991761;28;20199;-75
2021/09/14 07:23:52;;;;;;;13.70;7.70;;;17.50;75.20;;;;;;4995045;28;20196;-75
2021/09/14 07:26:18;;;;;;;13.73;7.07;;;17.50;75.30;;;;;;4998152;28;20186;-77
2021/09/14 07:28:43;;;;;;;16.55;7.03;;;17.60;75.90;;;;;;4994321;28;20192;-77
2021/09/14 07:31:11;;;;;;;10.90;6.55;;;17.70;75.20;;;;;;4992800;28;20202;-75
2021/09/14 07:33:37;;;;;;;9.52;6.45;;;17.80;74.90;;;;;;4999814;28;20235;-77
2021/09/14 07:36:03;;;;;;;10.50;6.85;;;17.90;74.80;;;;;;4996024;28;20208;-77
2021/09/14 07:38:29;;;;;;;9.40;7.55;;;18.00;74.80;;;;;;4995872;28;20181;-77
2021/09/14 07:40:55;;;;;;;14.38;7.25;;;18.10;74.30;;;;;;4993294;28;20196;-76
2021/09/14 07:43:21;;;;;;;7.25;6.10;;;18.20;74.40;;;;;;4993736;28;20662;-76
2021/09/14 07:45:46;;;;;;;8.95;6.28;;;18.30;73.40;;;;;;4993085;28;20196;-76
2021/09/14 07:48:12;;;;;;;12.68;6.53;;;18.40;73.70;;;;;;4994136;28;20185;-76
2021/09/14 07:50:38;;;;;;;7.85;6.75;;;18.60;73.50;;;;;;4995911;28;20185;-77
2021/09/14 07:53:04;;;;;;;9.82;6.65;;;18.70;73.20;;;;;;4995674;28;20185;-77
2021/09/14 07:55:30;;;;;;;7.45;6.13;;;18.80;72.70;;;;;;5024248;28;20734;-76
2021/09/14 07:57:56;;;;;;;8.60;5.80;;;19.00;72.30;;;;;;4993939;28;21227;-77
2021/09/14 08:00:21;;;;;;;11.15;6.15;;;19.10;72.20;;;;;;4991661;28;20273;-75
2021/09/14 08:02:55;;;;;;;7.10;6.40;;;19.30;72.20;;;;;;4997520;28;20269;-77
2021/09/14 08:05:21;;;;;;;8.05;6.28;;;19.40;71.20;;;;;;4989318;28;20192;-77
2021/09/14 08:07:47;;;;;;;9.20;6.07;;;19.60;71.30;;;;;;4993802;28;20243;-75
2021/09/14 08:10:13;;;;;;;6.82;5.85;;;19.80;71.30;;;;;;4988602;28;20186;-75
2021/09/14 08:12:39;;;;;;;5.78;5.30;;;19.90;71.00;;;;;;4990850;28;20227;-76
2021/09/14 08:15:05;;;;;;;5.93;5.30;;;20.20;69.50;;;;;;4993813;28;21017;-76
2021/09/14 08:17:31;;;;;;;10.07;6.00;;;20.40;69.40;;;;;;4998738;28;20586;-76
2021/09/14 08:19:56;;;;;;;11.55;5.20;;;20.70;69.10;;;;;;4994300;28;20181;-76
2021/09/14 08:22:23;;;;;;;10.75;5.47;;;21.00;68.30;;;;;;4988896;28;20268;-76
2021/09/14 08:24:49;;;;;;;7.03;5.25;;;21.40;66.90;;;;;;4987756;28;20193;-77
2021/09/14 08:27:15;;;;;;;11.02;5.63;;;21.90;66.50;;;;;;4995051;28;20266;-75
2021/09/14 08:29:40;;;;;;;8.93;5.38;;;22.50;64.70;;;;;;4992518;28;22316;-75
2021/09/14 08:32:06;;;;;;;6.38;5.03;;;23.30;64.10;;;;;;4995071;28;20264;-75
2021/09/14 08:34:32;;;;;;;4.93;4.47;;;24.10;61.50;;;;;;4991670;28;20718;-77
2021/09/14 08:36:58;;;;;;;11.52;4.40;;;24.80;60.10;;;;;;4989768;28;20239;-76
2021/09/14 08:39:23;;;;;;;4.40;4.10;;;25.60;59.10;;;;;;4994672;28;20189;-75
2021/09/14 08:41:50;;;;;;;4.28;3.65;;;26.40;57.80;;;;;;4995720;28;20242;-75
2021/09/14 08:44:16;;;;;;;6.20;3.72;;;27.20;55.40;;;;;;4989601;28;20189;-75
2021/09/14 08:46:43;;;;;;;4.65;3.50;;;27.90;55.10;;;;;;5021910;28;20181;-76
2021/09/14 08:49:12;;;;;;;6.45;3.78;;;28.80;53.30;;;;;;4988445;28;20181;-76
2021/09/14 08:51:38;;;;;;;8.07;3.75;;;29.60;53.30;;;;;;4988673;28;20193;-76
2021/09/14 08:54:04;;;;;;;7.55;3.67;;;30.50;52.20;;;;;;4992586;28;20595;-75
2021/09/14 08:56:30;;;;;;;3.60;3.30;;;31.30;50.90;;;;;;4988170;28;20546;-76
2021/09/14 08:59:01;;;;;;;6.80;3.75;;;32.00;50.30;;;;;;4987968;28;20186;-76
2021/09/14 09:01:28;;;;;;;6.95;3.50;;;32.80;49.50;;;;;;4988842;28;20702;-75
2021/09/14 09:04:04;;;;;;;4.70;3.35;;;33.40;48.40;;;;;;4986943;28;20193;-79
2021/09/14 09:06:36;;;;;;;3.33;2.90;;;34.00;47.50;;;;;;4987080;28;20624;-78
2021/09/14 09:09:14;;;;;;;4.03;3.00;;;34.50;46.80;;;;;;4989222;28;20178;-76
2021/09/14 09:12:05;;;;;;;2.97;2.78;;;35.00;45.40;;;;;;4986679;28;20197;-77
2021/09/14 09:14:39;;;;;;;2.65;2.53;;;35.50;44.50;;;;;;4987768;28;20219;-77
2021/09/14 09:17:15;;;;;;;5.97;3.08;;;35.90;44.90;;;;;;4992353;28;20208;-76
2021/09/14 09:19:42;;;;;;;2.97;2.70;;;35.90;44.40;;;;;;4994295;28;20267;-76
2021/09/14 09:22:12;;;;;;;3.53;2.92;;;35.90;43.70;;;;;;4995604;28;20185;-77
2021/09/14 09:24:48;;;;;;;3.72;2.65;;;36.00;43.30;;;;;;4992966;28;20671;-77
2021/09/14 09:27:16;;;;;;;3.38;2.42;;;36.20;43.50;;;;;;4991309;28;20615;-78
2021/09/14 09:29:42;;;;;;;2.90;2.35;;;36.30;43.00;;;;;;4988880;28;20686;-77
2021/09/14 09:32:08;;;;;;;3.45;2.75;;;36.60;42.50;;;;;;4989276;28;20201;-77
2021/09/14 09:34:34;;;;;;;2.97;2.78;;;37.00;43.10;;;;;;4991459;28;20220;-77
2021/09/14 09:37:08;;;;;;;2.60;2.47;;;37.40;41.70;;;;;;4990385;28;20184;-77
2021/09/14 09:39:37;;;;;;;4.88;2.83;;;37.80;41.80;;;;;;4992408;28;20705;-77
2021/09/14 09:42:06;;;;;;;2.58;2.38;;;38.30;42.40;;;;;;4993206;28;20204;-77
2021/09/14 09:44:33;;;;;;;2.55;2.45;;;38.80;42.60;;;;;;4990799;28;20193;-77
2021/09/14 09:47:01;;;;;;;3.45;3.15;;;39.30;42.10;;;;;;4985719;28;20185;-77
2021/09/14 09:49:27;;;;;;;3.38;3.17;;;39.80;41.00;;;;;;5019822;28;20575;-77
2021/09/14 09:51:54;;;;;;;6.43;2.83;;;40.30;41.10;;;;;;4985919;28;20196;-77
2021/09/14 09:54:20;;;;;;;3.00;2.90;;;40.80;41.50;;;;;;4988242;28;20212;-77
2021/09/14 09:56:48;;;;;;;3.45;2.53;;;41.20;39.70;;;;;;4988198;28;20263;-78
2021/09/14 09:59:14;;;;;;;2.78;2.67;;;41.60;40.10;;;;;;4988192;28;20276;-77
2021/09/14 10:01:43;;;;;;;2.70;2.50;;;41.80;40.40;;;;;;4991247;28;20258;-78
2021/09/14 10:04:10;;;;;;;2.70;2.70;;;41.90;39.90;;;;;;4997371;28;20274;-78
2021/09/14 10:06:42;;;;;;;2.45;2.35;;;42.10;40.50;;;;;;4994129;28;20196;-77
2021/09/14 10:09:08;;;;;;;2.67;2.55;;;42.40;37.80;;;;;;4993754;28;20439;-76
2021/09/14 10:11:36;;;;;;;2.85;2.65;;;42.50;38.80;;;;;;4993412;28;20234;-76
2021/09/14 10:14:09;;;;;;;5.03;2.45;;;42.80;39.10;;;;;;5025580;28;20216;-75
2021/09/14 10:16:39;;;;;;;5.45;2.63;;;43.20;39.00;;;;;;4995590;28;20181;-76
2021/09/14 10:19:13;;;;;;;3.03;2.80;;;43.50;39.30;;;;;;5026384;28;20192;-75
2021/09/14 10:21:43;;;;;;;2.60;2.50;;;43.80;36.30;;;;;;4992135;28;20562;-77
2021/09/14 10:24:22;;;;;;;2.67;2.47;;;43.90;38.50;;;;;;4996440;28;20181;-77
2021/09/14 10:26:48;;;;;;;3.10;2.53;;;43.80;36.40;;;;;;4993795;28;20196;-75
2021/09/14 10:29:17;;;;;;;2.97;2.67;;;43.30;35.50;;;;;;4995802;28;20173;-76
2021/09/14 10:31:43;;;;;;;2.65;2.42;;;42.80;36.40;;;;;;4994491;28;20736;-76
2021/09/14 10:34:15;;;;;;;3.70;2.50;;;42.80;38.20;;;;;;4996834;28;20267;-76
2021/09/14 10:36:46;;;;;;;2.42;2.33;;;42.70;37.60;;;;;;4991798;28;20215;-76
2021/09/14 10:39:25;;;;;;;2.30;2.30;;;42.30;37.10;;;;;;4994777;28;20188;-76
2021/09/14 10:41:52;;;;;;;2.95;2.85;;;41.80;36.10;;;;;;4989449;28;20193;-76
2021/09/14 10:44:45;;;;;;;2.50;2.40;;;41.60;38.00;;;;;;4991840;28;20181;-76
2021/09/14 10:47:18;;;;;;;3.10;2.88;;;41.40;36.50;;;;;;5000165;28;20254;-75
2021/09/14 10:49:57;;;;;;;2.08;1.98;;;41.20;37.80;;;;;;4994111;28;20300;-76
2021/09/14 10:52:33;;;;;;;3.08;2.63;;;41.00;38.70;;;;;;4990117;28;21016;-79
2021/09/14 10:55:10;;;;;;;3.03;2.80;;;40.80;37.50;;;;;;4987798;28;20666;-79
2021/09/14 10:57:38;;;;;;;3.28;2.92;;;41.30;38.70;;;;;;4993483;28;20184;-77
2021/09/14 11:00:07;;;;;;;2.67;2.40;;;41.90;38.40;;;;;;4992370;28;20177;-77
2021/09/14 11:02:33;;;;;;;2.10;2.10;;;42.60;37.50;;;;;;4997093;28;20185;-77
2021/09/14 11:05:00;;;;;;;2.55;2.45;;;43.10;37.60;;;;;;4995234;28;20279;-76
2021/09/14 11:07:28;;;;;;;2.97;2.78;;;43.50;37.10;;;;;;4990732;28;20188;-77
2021/09/14 11:09:55;;;;;;;2.58;2.33;;;43.70;38.10;;;;;;4991717;28;20180;-77
2021/09/14 11:12:26;;;;;;;3.05;2.55;;;43.90;38.20;;;;;;4989049;28;20201;-76
2021/09/14 11:14:53;;;;;;;2.38;2.38;;;43.90;36.70;;;;;;4995196;28;20217;-76
2021/09/14 11:17:30;;;;;;;2.13;2.00;;;43.60;37.50;;;;;;4994447;28;20260;-77
2021/09/14 11:20:14;;;;;;;2.50;2.42;;;43.40;35.00;;;;;;4993949;28;20267;-76
2021/09/14 11:22:42;;;;;;;2.35;2.35;;;43.40;36.10;;;;;;4988222;28;20663;-76
2021/09/14 11:25:22;;;;;;;3.78;2.15;;;43.70;37.30;;;;;;4988231;28;20332;-76
2021/09/14 11:28:18;;;;;;;2.10;2.00;;;44.00;35.60;;;;;;4992767;28;20184;-76
2021/09/14 11:31:01;;;;;;;2.05;1.95;;;44.40;35.70;;;;;;4988264;28;20235;-76
2021/09/14 11:33:29;;;;;;;3.75;2.10;;;44.90;35.60;;;;;;4986581;28;20570;-77
2021/09/14 11:35:57;;;;;;;3.00;2.17;;;45.10;36.00;;;;;;4984683;28;20610;-77
2021/09/14 11:38:24;;;;;;;3.30;2.35;;;45.20;35.00;;;;;;5020244;28;20280;-77
2021/09/14 11:41:00;;;;;;;2.67;2.15;;;45.30;35.40;;;;;;4993759;28;20181;-77
2021/09/14 11:43:29;;;;;;;2.30;2.20;;;45.40;34.40;;;;;;4984472;28;20220;-77
2021/09/14 11:45:57;;;;;;;2.08;2.08;;;45.60;34.40;;;;;;4991725;28;20173;-77
2021/09/14 11:48:24;;;;;;;2.63;2.35;;;45.60;35.50;;;;;;4994838;28;20191;-77
2021/09/14 11:51:07;;;;;;;3.22;2.40;;;45.70;35.80;;;;;;4993934;28;20185;-77
2021/09/14 11:53:36;;;;;;;2.33;2.13;;;45.80;34.20;;;;;;4990009;28;20989;-77
2021/09/14 11:56:14;;;;;;;2.30;2.30;;;45.80;34.90;;;;;;4988633;28;20185;-77
2021/09/14 11:58:48;;;;;;;2.10;2.10;;;46.00;33.30;;;;;;4991847;28;20181;-77
2021/09/14 12:01:16;;;;;;;1.85;1.85;;;46.10;33.60;;;;;;4995180;28;20238;-76
2021/09/14 12:03:51;;;;;;;2.17;1.92;;;45.90;33.20;;;;;;5017761;28;20217;-77
2021/09/14 12:06:28;;;;;;;1.95;1.85;;;45.80;33.00;;;;;;4994588;28;20183;-77
2021/09/14 12:08:59;;;;;;;2.25;2.15;;;45.20;33.50;;;;;;4994614;28;20176;-77
2021/09/14 12:11:30;;;;;;;2.17;2.15;;;44.90;33.30;;;;;;4991117;28;20197;-76
2021/09/14 12:14:04;;;;;;;2.05;1.92;;;44.50;34.20;;;;;;4988755;28;20255;-76
2021/09/14 12:16:36;;;;;;;2.13;2.03;;;43.90;34.50;;;;;;4985810;28;20195;-76
2021/09/14 12:19:02;;;;;;;2.85;2.13;;;43.20;35.40;;;;;;4985595;28;20189;-77
2021/09/14 12:21:28;;;;;;;2.20;2.10;;;42.60;34.70;;;;;;4989551;28;20314;-78
2021/09/14 12:23:55;;;;;;;2.33;2.10;;;41.90;35.30;;;;;;4984523;28;20312;-79
2021/09/14 12:26:24;;;;;;;1.90;1.90;;;41.60;35.60;;;;;;4988931;28;20675;-77
2021/09/14 12:28:56;;;;;;;1.98;1.88;;;41.10;35.60;;;;;;5025711;28;20185;-77
2021/09/14 12:31:22;;;;;;;4.18;2.15;;;40.70;36.40;;;;;;4995437;28;20200;-77
2021/09/14 12:33:49;;;;;;;1.73;1.73;;;40.50;36.60;;;;;;4994881;28;20296;-77
2021/09/14 12:36:15;;;;;;;2.08;1.98;;;40.60;36.90;;;;;;4992221;28;20192;-77
2021/09/14 12:38:41;;;;;;;1.63;1.63;;;40.60;34.60;;;;;;4991793;28;20191;-76
2021/09/14 12:41:07;;;;;;;1.55;1.55;;;40.70;36.20;;;;;;4995935;28;20180;-77
2021/09/14 12:43:33;;;;;;;1.70;1.70;;;40.70;35.30;;;;;;4997082;28;20173;-77
2021/09/14 12:46:00;;;;;;;1.73;1.70;;;40.50;35.90;;;;;;5017539;28;20184;-76
2021/09/14 12:48:26;;;;;;;1.70;1.60;;;40.10;35.70;;;;;;4993871;28;20189;-76
2021/09/14 12:50:51;;;;;;;2.05;1.95;;;39.80;35.90;;;;;;4987599;28;20212;-76
2021/09/14 12:53:17;;;;;;;1.67;1.67;;;39.60;36.10;;;;;;4986260;28;20185;-78
2021/09/14 12:55:43;;;;;;;1.83;1.83;;;39.40;35.70;;;;;;5022852;28;20218;-75
2021/09/14 12:58:09;;;;;;;2.20;1.90;;;39.60;36.10;;;;;;4992016;28;20208;-75
2021/09/14 13:00:36;;;;;;;1.65;1.65;;;40.00;36.00;;;;;;4993769;28;20189;-77
2021/09/14 13:03:03;;;;;;;4.90;1.83;;;40.50;35.30;;;;;;4991265;28;20188;-75
2021/09/14 13:05:31;;;;;;;1.52;1.48;;;41.00;34.70;;;;;;4989393;28;20185;-75
2021/09/14 13:07:57;;;;;;;2.00;1.98;;;41.40;34.50;;;;;;4988184;28;20231;-78
2021/09/14 13:10:23;;;;;;;1.75;1.73;;;41.60;34.40;;;;;;4994243;28;20212;-75
2021/09/14 13:16:09;;;;;;;1.95;1.85;;;41.50;34.50;;;;;;4990466;28;20181;-76
2021/09/14 13:18:33;;;;;;;2.10;2.03;;;41.40;34.30;;;;;;4990970;28;20216;-77
2021/09/14 13:20:59;;;;;;;1.92;1.92;;;41.20;33.80;;;;;;4986966;28;20185;-76
2021/09/14 13:23:25;;;;;;;2.00;2.00;;;41.30;35.40;;;;;;4989035;28;21062;-76
2021/09/14 13:25:51;;;;;;;2.08;2.03;;;41.50;34.90;;;;;;4987169;28;20189;-77
2021/09/14 13:28:17;;;;;;;2.55;1.63;;;41.80;35.20;;;;;;4989437;28;20275;-77
2021/09/14 13:30:43;;;;;;;2.20;2.00;;;41.70;34.90;;;;;;4984418;28;20195;-76
2021/09/14 13:33:09;;;;;;;1.95;1.92;;;41.40;34.40;;;;;;4982248;28;20622;-77
2021/09/14 13:35:35;;;;;;;1.70;1.70;;;40.90;34.90;;;;;;4989401;28;20220;-77
2021/09/14 13:38:01;;;;;;;2.30;2.30;;;40.20;35.30;;;;;;4985455;28;20185;-77
2021/09/14 13:40:27;;;;;;;2.20;2.10;;;39.60;35.00;;;;;;4990953;28;20206;-77
2021/09/14 13:42:57;;;;;;;2.63;2.35;;;39.30;35.90;;;;;;4987432;28;20193;-76
2021/09/14 13:48:08;;;;;;;1.98;1.55;;;39.20;36.80;;;;;;4986874;28;20196;-77